LOWW/VIE METAR and TAF weather

Enter ICAO airport designator
Station Type Date Time Source
LOWW METAR 2019/08/24 06:50 UTC NOAA

LOWW 240650Z VRB02KT CAVOK 22/17 Q1023 NOSIG


Station Type Date Time Source
LOWW Decoded METAR 2019/08/24 06:50 UTC NOAA

Station name not available
Aug 24, 2019 - 02:50 AM EDT / 2019.08.24 0650 UTC
Wind: Variable at 2 MPH (2 KT):0
Visibility: greater than 7 mile(s):0
Temperature: 71 F (22 C)
Dew Point: 62 F (17 C)
Relative Humidity: 73%
Pressure (altimeter): 30.21 in. Hg (1023 hPa)
ob: LOWW 240650Z VRB02KT CAVOK 22/17 Q1023 NOSIG
cycle: 7

Station Type Date Time Source
LOWW TAF 2019/08/24 06:19 UTC NOAA

TAF LOWW 240515Z 2406/2512 VRB02KT CAVOK TX28/2512Z TN19/2504Z
BECMG 2408/2411 14008KT
TEMPO 2413/2421 9999 FEW050CB BKN300 PROB40
TEMPO 2418/2422 9999 SHRA FEW050CB BKN050
TEMPO 2510/2512 9999 FEW050CB BKN300

Example: see airport list